createdAt,value
2018-10-12T00:01:34.365Z,15.33
2018-10-12T00:04:02.813Z,12.17
2018-10-12T00:06:31.314Z,14.47
2018-10-12T00:09:00.000Z,14.83
2018-10-12T00:11:28.489Z,12.70
2018-10-12T00:13:56.954Z,13.83
2018-10-12T00:16:25.693Z,12.67
2018-10-12T00:18:54.219Z,14.03
2018-10-12T00:21:22.828Z,15.43
2018-10-12T00:23:51.571Z,14.33
2018-10-12T00:26:20.011Z,15.97
2018-10-12T00:28:48.476Z,13.27
2018-10-12T00:31:16.971Z,14.80
2018-10-12T00:33:45.480Z,14.43
2018-10-12T00:36:13.963Z,13.27
2018-10-12T00:38:42.433Z,15.90
2018-10-12T00:41:10.880Z,12.20
2018-10-12T00:43:39.358Z,16.87
2018-10-12T00:46:07.851Z,13.90
2018-10-12T00:48:36.313Z,12.70
2018-10-12T00:51:04.795Z,11.47
2018-10-12T00:53:33.419Z,12.37
2018-10-12T00:56:01.933Z,14.07
2018-10-12T00:58:30.385Z,15.47
2018-10-12T01:00:58.843Z,15.13
2018-10-12T01:03:27.255Z,15.93
2018-10-12T01:05:55.761Z,15.47
2018-10-12T01:08:24.215Z,19.10
2018-10-12T01:10:52.683Z,16.00
2018-10-12T01:13:21.273Z,15.83
2018-10-12T01:15:49.752Z,16.77
2018-10-12T01:18:18.309Z,16.40
2018-10-12T01:20:46.723Z,16.10
2018-10-12T01:23:15.217Z,12.60
2018-10-12T01:25:43.662Z,13.03
2018-10-12T01:28:12.172Z,15.87
2018-10-12T01:30:41.439Z,15.70
2018-10-12T01:33:09.939Z,14.10
2018-10-12T01:35:38.364Z,14.30
2018-10-12T01:38:06.832Z,14.50
2018-10-12T01:40:35.244Z,13.23
2018-10-12T01:43:03.761Z,18.00
2018-10-12T01:45:32.171Z,14.27
2018-10-12T01:48:00.948Z,13.40
2018-10-12T01:50:29.389Z,13.87
2018-10-12T01:52:57.848Z,18.17
2018-10-12T01:55:26.329Z,13.47
2018-10-12T01:57:54.868Z,15.23
2018-10-12T02:00:23.636Z,12.90
2018-10-12T02:02:52.139Z,12.87
2018-10-12T02:05:20.869Z,12.83
2018-10-12T02:07:49.345Z,13.63
2018-10-12T02:10:17.797Z,13.33
2018-10-12T02:12:46.278Z,14.07
2018-10-12T02:15:14.996Z,17.63
2018-10-12T02:17:43.433Z,15.13
2018-10-12T02:20:12.263Z,14.60
2018-10-12T02:22:41.012Z,14.90
2018-10-12T02:25:09.947Z,15.67
2018-10-12T02:27:38.392Z,12.30
2018-10-12T02:30:07.853Z,13.37
2018-10-12T02:32:36.307Z,12.23
2018-10-12T02:35:05.377Z,11.70
2018-10-12T02:37:33.881Z,13.10
2018-10-12T02:40:02.975Z,12.23
2018-10-12T02:42:31.469Z,12.97
2018-10-12T02:45:00.561Z,13.23
2018-10-12T02:47:29.079Z,15.83
2018-10-12T02:49:57.592Z,12.70
2018-10-12T02:52:26.049Z,14.20
2018-10-12T02:54:54.544Z,12.60
2018-10-12T02:57:23.065Z,12.23
2018-10-12T02:59:51.538Z,12.33
2018-10-12T03:02:20.030Z,11.97
2018-10-12T03:04:48.775Z,12.27
2018-10-12T03:07:17.254Z,10.70
2018-10-12T03:09:45.686Z,13.73
2018-10-12T03:12:14.160Z,14.37
2018-10-12T03:14:42.757Z,14.20
2018-10-12T03:17:11.455Z,13.33
2018-10-12T03:19:40.513Z,13.83
2018-10-12T03:22:08.955Z,15.80
2018-10-12T03:24:37.465Z,15.13
2018-10-12T03:27:06.111Z,16.27
2018-10-12T03:29:34.594Z,14.67
2018-10-12T03:32:03.048Z,13.73
2018-10-12T03:34:31.800Z,12.50
2018-10-12T03:37:00.273Z,17.03
2018-10-12T03:39:28.736Z,16.80
2018-10-12T03:41:57.198Z,14.43
2018-10-12T03:44:25.719Z,13.23
2018-10-12T03:46:54.092Z,14.23
2018-10-12T03:49:23.037Z,17.73
2018-10-12T03:51:51.504Z,16.30
2018-10-12T03:54:20.141Z,14.33
2018-10-12T03:56:48.583Z,15.33
2018-10-12T03:59:17.056Z,12.57
2018-10-12T04:01:45.571Z,13.13
2018-10-12T04:04:14.059Z,12.50
2018-10-12T04:06:42.583Z,13.83
2018-10-12T04:09:11.044Z,12.00
2018-10-12T04:11:39.530Z,14.10
2018-10-12T04:14:08.000Z,11.90
2018-10-12T04:16:36.417Z,13.20
2018-10-12T04:19:04.904Z,12.83
2018-10-12T04:21:33.315Z,13.87
2018-10-12T04:24:01.805Z,12.53
2018-10-12T04:26:30.236Z,12.93
2018-10-12T04:28:58.676Z,17.63
2018-10-12T04:31:27.120Z,14.33
2018-10-12T04:33:55.539Z,15.70
2018-10-12T04:36:24.520Z,13.00
2018-10-12T04:39:05.031Z,13.13
2018-10-12T04:41:33.507Z,13.33
2018-10-12T04:44:03.728Z,14.43
2018-10-12T04:46:47.771Z,14.37
2018-10-12T04:49:17.221Z,14.23
2018-10-12T04:51:48.777Z,14.83
2018-10-12T04:54:18.009Z,15.73
2018-10-12T04:56:47.176Z,16.00
2018-10-12T04:59:15.709Z,13.03
2018-10-12T05:01:44.167Z,15.83
2018-10-12T05:04:13.611Z,13.90
2018-10-12T05:06:43.100Z,12.37
2018-10-12T05:09:12.523Z,12.33
2018-10-12T05:11:41.421Z,12.23
2018-10-12T05:14:10.372Z,14.80
2018-10-12T05:16:38.941Z,15.57
2018-10-12T05:19:08.421Z,14.03
2018-10-12T05:21:36.860Z,15.80
2018-10-12T05:24:05.281Z,12.37
2018-10-12T05:26:33.871Z,13.20
2018-10-12T05:29:02.848Z,13.67
2018-10-12T05:31:31.310Z,15.03
2018-10-12T05:34:00.010Z,15.87
2018-10-12T05:36:28.459Z,15.47
2018-10-12T05:38:57.050Z,21.00
2018-10-12T05:41:25.558Z,19.03
2018-10-12T05:43:54.523Z,18.40
2018-10-12T05:46:23.063Z,15.13
2018-10-12T05:49:02.718Z,17.07
2018-10-12T05:51:31.167Z,15.97
2018-10-12T05:54:00.281Z,16.43
2018-10-12T05:56:30.894Z,16.50
2018-10-12T05:58:59.826Z,14.70
2018-10-12T06:01:28.443Z,15.03
2018-10-12T06:03:57.017Z,14.20
2018-10-12T06:06:25.481Z,16.23
2018-10-12T06:08:54.684Z,12.83
2018-10-12T06:11:23.600Z,11.00
2018-10-12T06:13:52.056Z,12.97
2018-10-12T06:16:20.526Z,17.90
2018-10-12T06:18:49.174Z,19.47
2018-10-12T06:21:17.995Z,15.57
2018-10-12T06:23:46.552Z,17.33
2018-10-12T06:26:15.659Z,16.90
2018-10-12T06:28:44.245Z,16.40
2018-10-12T06:31:13.086Z,16.53
2018-10-12T06:33:42.109Z,15.23
2018-10-12T06:36:10.753Z,17.00
2018-10-12T06:38:39.258Z,18.40
2018-10-12T06:41:08.060Z,18.13
2018-10-12T06:43:36.727Z,17.07
2018-10-12T06:46:05.248Z,17.77
2018-10-12T06:48:33.759Z,14.80
2018-10-12T06:51:04.660Z,15.03
2018-10-12T06:53:33.173Z,16.70
2018-10-12T06:56:01.700Z,15.77
2018-10-12T06:58:30.277Z,16.73
2018-10-12T07:00:59.545Z,14.90
2018-10-12T07:03:28.129Z,16.40
2018-10-12T07:05:56.615Z,15.60
2018-10-12T07:08:26.512Z,16.50
2018-10-12T07:10:55.014Z,16.60
2018-10-12T07:13:23.470Z,15.33
2018-10-12T07:15:52.624Z,16.07
2018-10-12T07:18:21.124Z,17.67
2018-10-12T07:20:49.563Z,15.00
2018-10-12T07:23:18.082Z,14.70
2018-10-12T07:25:46.578Z,16.57
2018-10-12T07:28:15.057Z,14.07
2018-10-12T07:30:43.530Z,14.33
2018-10-12T07:33:12.039Z,13.03
2018-10-12T07:35:40.743Z,15.40
2018-10-12T07:38:09.193Z,17.03
2018-10-12T07:40:37.626Z,13.73
2018-10-12T07:43:06.049Z,14.17
2018-10-12T07:45:34.528Z,13.63
2018-10-12T07:48:03.152Z,14.40
2018-10-12T07:50:31.566Z,16.57
2018-10-12T07:53:00.865Z,14.00
2018-10-12T07:55:29.345Z,14.83
2018-10-12T07:57:58.106Z,12.57
2018-10-12T08:00:26.381Z,13.80
2018-10-12T08:02:54.979Z,12.47
2018-10-12T08:05:23.499Z,14.60
2018-10-12T08:07:51.930Z,12.10
2018-10-12T08:10:20.407Z,13.30
2018-10-12T08:12:48.869Z,12.10
2018-10-12T08:15:17.323Z,10.53
2018-10-12T08:17:45.926Z,12.47
2018-10-12T08:20:14.902Z,9.70
2018-10-12T08:22:43.437Z,12.00
2018-10-12T08:25:11.922Z,9.17
2018-10-12T08:27:40.391Z,8.80
2018-10-12T08:30:09.068Z,7.90
2018-10-12T08:32:37.724Z,6.43
2018-10-12T08:35:06.431Z,7.47
2018-10-12T08:37:34.956Z,8.37
2018-10-12T08:40:03.486Z,8.73
2018-10-12T08:42:32.826Z,6.07
2018-10-12T08:45:01.343Z,6.23
2018-10-12T08:47:30.081Z,6.50
2018-10-12T08:49:58.664Z,8.17
2018-10-12T08:52:27.082Z,6.23
2018-10-12T08:54:55.625Z,6.23
2018-10-12T08:57:24.816Z,8.73
2018-10-12T08:59:53.369Z,6.63
2018-10-12T09:02:22.317Z,9.83
2018-10-12T09:04:51.698Z,4.73
2018-10-12T09:07:20.183Z,7.87
2018-10-12T09:09:48.728Z,4.53
2018-10-12T09:12:17.197Z,6.60
2018-10-12T09:14:45.645Z,3.53
2018-10-12T09:17:14.167Z,4.83
2018-10-12T09:19:42.639Z,5.50
2018-10-12T09:22:11.124Z,4.00
2018-10-12T09:24:39.607Z,7.90
2018-10-12T09:27:09.152Z,8.10
2018-10-12T09:29:37.605Z,7.03
2018-10-12T09:32:06.085Z,7.57
2018-10-12T09:34:34.518Z,5.23
2018-10-12T09:37:03.251Z,6.47
2018-10-12T09:39:32.255Z,6.10
2018-10-12T09:42:01.120Z,7.27
2018-10-12T09:44:29.935Z,4.13
2018-10-12T09:46:58.504Z,5.37
2018-10-12T09:49:26.950Z,5.87
2018-10-12T09:51:55.952Z,4.03
2018-10-12T09:54:24.945Z,6.23
2018-10-12T09:56:58.651Z,5.80
2018-10-12T09:59:27.253Z,6.23
2018-10-12T10:02:00.973Z,4.23
2018-10-12T10:04:32.607Z,5.00
2018-10-12T10:07:02.471Z,7.90
2018-10-12T10:09:31.002Z,3.63
2018-10-12T10:11:59.789Z,7.30
2018-10-12T10:14:29.479Z,7.70
2018-10-12T10:16:57.996Z,4.57
2018-10-12T10:19:26.634Z,3.23
2018-10-12T10:21:55.600Z,5.63
2018-10-12T10:24:24.107Z,5.63
2018-10-12T10:26:52.678Z,3.53
2018-10-12T10:29:21.798Z,4.10
2018-10-12T10:31:50.231Z,3.50
2018-10-12T10:34:18.902Z,4.40
2018-10-12T10:36:48.056Z,2.97
2018-10-12T10:39:16.335Z,4.77
2018-10-12T10:41:44.810Z,4.77
2018-10-12T10:44:13.284Z,3.97
2018-10-12T10:46:42.213Z,8.27
2018-10-12T10:49:10.640Z,5.07
2018-10-12T10:51:39.117Z,5.20
2018-10-12T10:54:07.591Z,2.87
2018-10-12T10:56:36.031Z,4.87
2018-10-12T10:59:05.120Z,6.03
2018-10-12T11:01:33.533Z,3.97
2018-10-12T11:04:02.064Z,5.53
2018-10-12T11:06:30.601Z,5.43
2018-10-12T11:08:59.239Z,6.93
2018-10-12T11:11:27.777Z,3.57
2018-10-12T11:13:56.350Z,4.53
2018-10-12T11:16:24.750Z,6.57
2018-10-12T11:18:53.245Z,4.27
2018-10-12T11:21:21.736Z,2.67
2018-10-12T11:23:50.159Z,4.53
2018-10-12T11:26:18.681Z,6.20
2018-10-12T11:28:47.111Z,3.17
2018-10-12T11:31:15.531Z,4.67
2018-10-12T11:33:44.067Z,4.33
2018-10-12T11:36:12.515Z,3.30
2018-10-12T11:38:40.988Z,4.20
2018-10-12T11:41:09.392Z,4.63
2018-10-12T11:43:38.991Z,1.60
2018-10-12T11:46:08.561Z,6.03
2018-10-12T11:48:36.990Z,5.63
2018-10-12T11:51:05.458Z,4.83
2018-10-12T11:53:34.423Z,4.00
2018-10-12T11:56:03.658Z,4.10
2018-10-12T11:58:32.530Z,3.90
2018-10-12T12:01:01.008Z,5.40
2018-10-12T12:03:30.098Z,3.63
2018-10-12T12:05:58.541Z,3.50
2018-10-12T12:08:27.166Z,4.60
2018-10-12T12:10:55.610Z,4.30
2018-10-12T12:13:24.329Z,8.40
2018-10-12T12:15:52.780Z,4.97
2018-10-12T12:18:21.223Z,4.67
2018-10-12T12:20:49.699Z,3.60
2018-10-12T12:23:18.171Z,5.80
2018-10-12T12:25:46.559Z,4.47
2018-10-12T12:28:14.964Z,4.87
2018-10-12T12:30:44.262Z,4.77
2018-10-12T12:33:12.738Z,3.63
2018-10-12T12:35:41.511Z,4.10
2018-10-12T12:38:09.653Z,6.33
2018-10-12T12:40:38.064Z,2.90
2018-10-12T12:43:06.505Z,4.53
2018-10-12T12:45:34.952Z,3.00
2018-10-12T12:48:10.034Z,3.60
2018-10-12T12:50:38.289Z,4.53
2018-10-12T12:53:07.943Z,4.43
2018-10-12T12:55:36.394Z,4.93
2018-10-12T12:58:04.836Z,5.60
2018-10-12T13:00:33.266Z,7.80
2018-10-12T13:03:02.592Z,3.33
2018-10-12T13:05:30.987Z,3.53
2018-10-12T13:07:59.397Z,4.80
2018-10-12T13:10:27.834Z,3.43
2018-10-12T13:12:56.267Z,3.17
2018-10-12T13:15:24.693Z,2.87
2018-10-12T13:17:53.149Z,4.13
2018-10-12T13:20:21.623Z,4.00
2018-10-12T13:22:50.052Z,3.27
2018-10-12T13:25:18.499Z,2.33
2018-10-12T13:27:46.940Z,5.67
2018-10-12T13:30:15.460Z,4.70
2018-10-12T13:32:44.152Z,4.63
2018-10-12T13:35:12.625Z,7.17
2018-10-12T13:37:41.150Z,3.83
2018-10-12T13:40:09.559Z,3.17
2018-10-12T13:42:38.003Z,3.50
2018-10-12T13:45:06.561Z,4.17
2018-10-12T13:47:34.949Z,5.20
2018-10-12T13:50:03.423Z,5.03
2018-10-12T13:52:31.988Z,3.90
2018-10-12T13:55:00.430Z,5.77
2018-10-12T13:57:28.882Z,2.80
2018-10-12T13:59:57.357Z,5.20
2018-10-12T14:02:25.815Z,2.93
2018-10-12T14:04:54.248Z,2.90
2018-10-12T14:07:23.338Z,8.03
2018-10-12T14:09:52.082Z,5.20
2018-10-12T14:12:20.738Z,5.73
2018-10-12T14:14:49.149Z,5.03
2018-10-12T14:17:17.560Z,1.90
2018-10-12T14:19:46.629Z,2.67
2018-10-12T14:22:15.172Z,5.67
2018-10-12T14:24:44.061Z,2.50
2018-10-12T14:27:12.645Z,5.67
2018-10-12T14:29:41.184Z,3.63
2018-10-12T14:32:09.612Z,4.53
2018-10-12T14:34:38.365Z,3.27
2018-10-12T14:37:07.071Z,6.00
2018-10-12T14:39:35.603Z,3.60
2018-10-12T14:42:04.863Z,5.90
2018-10-12T14:44:33.986Z,4.87
2018-10-12T14:47:03.338Z,5.63
2018-10-12T14:49:33.058Z,4.17
2018-10-12T14:52:01.653Z,4.03
2018-10-12T14:54:30.131Z,2.90
2018-10-12T14:56:59.699Z,2.33
2018-10-12T14:59:28.234Z,3.97
2018-10-12T15:01:56.856Z,4.77
2018-10-12T15:04:25.438Z,5.73
2018-10-12T15:06:53.923Z,4.67
2018-10-12T15:09:23.260Z,6.37
2018-10-12T15:11:51.883Z,4.53
2018-10-12T15:14:29.503Z,4.60
2018-10-12T15:16:58.069Z,4.63
2018-10-12T15:19:26.504Z,6.93
2018-10-12T15:21:55.578Z,4.20
2018-10-12T15:24:24.035Z,6.90
2018-10-12T15:26:52.563Z,4.13
2018-10-12T15:29:21.081Z,3.17
2018-10-12T15:31:49.577Z,4.93
2018-10-12T15:34:18.039Z,6.00
2018-10-12T15:36:46.543Z,5.33
2018-10-12T15:39:14.945Z,6.43
2018-10-12T15:41:43.512Z,5.50
2018-10-12T15:44:11.991Z,4.00
2018-10-12T15:46:40.495Z,6.87
2018-10-12T15:49:09.093Z,5.33
2018-10-12T15:51:37.755Z,2.80
2018-10-12T15:54:06.128Z,4.57
2018-10-12T15:56:34.813Z,3.83
2018-10-12T15:59:03.270Z,4.87
2018-10-12T16:01:31.739Z,3.37
2018-10-12T16:04:00.512Z,3.93
2018-10-12T16:06:29.004Z,6.63
2018-10-12T16:08:57.514Z,4.87
2018-10-12T16:11:26.256Z,3.27
2018-10-12T16:13:55.532Z,3.87
2018-10-12T16:16:24.009Z,4.10
2018-10-12T16:18:52.495Z,2.80
2018-10-12T16:21:20.998Z,5.47
2018-10-12T16:23:51.168Z,4.63
2018-10-12T16:26:23.664Z,3.53
2018-10-12T16:28:52.146Z,3.87
2018-10-12T16:31:20.589Z,4.60
2018-10-12T16:33:49.029Z,3.83
2018-10-12T16:36:17.445Z,3.70
2018-10-12T16:38:45.884Z,3.43
2018-10-12T16:41:14.352Z,3.17
2018-10-12T16:43:42.857Z,3.07
2018-10-12T16:46:11.930Z,4.00
2018-10-12T16:48:40.554Z,3.73
2018-10-12T16:51:09.515Z,6.40
2018-10-12T16:53:39.725Z,3.73
2018-10-12T16:56:08.143Z,2.87
2018-10-12T16:58:37.499Z,9.00
2018-10-12T17:01:05.965Z,11.47
2018-10-12T17:03:34.389Z,4.27
2018-10-12T17:06:02.848Z,4.90
2018-10-12T17:08:31.315Z,3.80
2018-10-12T17:10:59.733Z,6.70
2018-10-12T17:13:28.190Z,2.93
2018-10-12T17:15:56.592Z,7.27
2018-10-12T17:18:26.203Z,7.20
2018-10-12T17:20:54.552Z,4.80
2018-10-12T17:23:24.740Z,3.63
2018-10-12T17:25:53.224Z,7.07
2018-10-12T17:28:21.809Z,6.33
2018-10-12T17:30:50.555Z,6.57
2018-10-12T17:33:19.005Z,4.87
2018-10-12T17:35:47.471Z,5.33
2018-10-12T17:38:15.938Z,5.10
2018-10-12T17:40:44.389Z,7.53
2018-10-12T17:43:12.855Z,3.57
2018-10-12T17:45:41.279Z,3.83
2018-10-12T17:48:09.879Z,5.57
2018-10-12T17:50:40.951Z,4.63
2018-10-12T17:53:09.464Z,12.17
2018-10-12T17:55:38.284Z,4.43
2018-10-12T17:58:06.850Z,5.97
2018-10-12T18:00:35.420Z,4.20
2018-10-12T18:03:04.037Z,5.67
2018-10-12T18:05:32.567Z,5.00
2018-10-12T18:08:01.081Z,4.23
2018-10-12T18:10:30.412Z,3.70
2018-10-12T18:12:58.913Z,4.87
2018-10-12T18:15:27.977Z,4.43
2018-10-12T18:17:56.574Z,5.37
2018-10-12T18:20:25.124Z,4.27
2018-10-12T18:22:53.632Z,4.07
2018-10-12T18:25:22.070Z,5.37
2018-10-12T18:27:51.029Z,5.93
2018-10-12T18:30:20.140Z,6.07
2018-10-12T18:32:49.149Z,6.00
2018-10-12T18:35:17.610Z,6.03
2018-10-12T18:37:46.067Z,4.33
2018-10-12T18:40:14.584Z,6.67
2018-10-12T18:42:43.086Z,5.40
2018-10-12T18:45:11.561Z,6.73
2018-10-12T18:47:40.107Z,6.47
2018-10-12T18:50:08.978Z,6.00
2018-10-12T18:52:37.428Z,6.10
2018-10-12T18:55:06.315Z,6.70
2018-10-12T18:57:35.850Z,7.60
2018-10-12T19:00:06.390Z,7.33
2018-10-12T19:02:35.839Z,6.23
2018-10-12T19:05:04.468Z,5.57
2018-10-12T19:07:32.989Z,4.20
2018-10-12T19:10:01.535Z,7.43
2018-10-12T19:12:29.983Z,7.20
2018-10-12T19:14:58.486Z,6.17
2018-10-12T19:17:26.865Z,9.03
2018-10-12T19:19:56.164Z,5.17
2018-10-12T19:22:25.101Z,6.00
2018-10-12T19:24:53.607Z,4.33
2018-10-12T19:27:22.338Z,5.73
2018-10-12T19:29:51.048Z,7.63
2018-10-12T19:32:20.440Z,4.83
2018-10-12T19:34:48.971Z,5.80
2018-10-12T19:37:17.415Z,8.87
2018-10-12T19:39:45.928Z,7.83
2018-10-12T19:42:14.817Z,15.67
2018-10-12T19:44:43.304Z,15.03
2018-10-12T19:47:11.734Z,11.17
2018-10-12T19:49:41.480Z,10.83
2018-10-12T19:52:09.941Z,10.97
2018-10-12T19:54:38.350Z,6.83
2018-10-12T19:57:06.791Z,8.00
2018-10-12T19:59:35.253Z,6.27
2018-10-12T20:02:03.862Z,34.03
2018-10-12T20:04:32.834Z,7.43
2018-10-12T20:07:01.406Z,8.83
2018-10-12T20:09:29.888Z,6.23
2018-10-12T20:11:58.690Z,5.63
2018-10-12T20:14:27.661Z,10.60
2018-10-12T20:16:56.145Z,6.10
2018-10-12T20:19:25.399Z,5.53
2018-10-12T20:21:53.927Z,7.83
2018-10-12T20:24:22.454Z,8.33
2018-10-12T20:26:50.895Z,6.07
2018-10-12T20:29:19.305Z,6.80
2018-10-12T20:31:47.932Z,5.80
2018-10-12T20:34:16.705Z,8.03
2018-10-12T20:36:45.151Z,6.33
2018-10-12T20:39:13.591Z,6.53
2018-10-12T20:41:42.956Z,8.17
2018-10-12T20:44:11.349Z,6.77
2018-10-12T20:46:40.075Z,7.33
2018-10-12T20:49:08.536Z,8.63
2018-10-12T20:51:37.495Z,5.30
2018-10-12T20:54:06.163Z,8.47
2018-10-12T20:56:34.617Z,6.73
2018-10-12T20:59:03.113Z,5.90
2018-10-12T21:01:31.607Z,8.57
2018-10-12T21:04:00.165Z,6.43
2018-10-12T21:06:28.712Z,7.60
2018-10-12T21:08:57.629Z,9.23
2018-10-12T21:11:26.159Z,7.50
2018-10-12T21:13:54.623Z,5.83
2018-10-12T21:16:23.055Z,7.90
2018-10-12T21:18:51.501Z,12.93
2018-10-12T21:21:20.209Z,16.30
2018-10-12T21:23:49.364Z,14.03
2018-10-12T21:26:17.820Z,14.23
2018-10-12T21:28:46.312Z,10.63
2018-10-12T21:31:14.796Z,11.47
2018-10-12T21:33:43.735Z,7.73
2018-10-12T21:36:12.435Z,7.53
2018-10-12T21:38:41.389Z,6.97
2018-10-12T21:41:09.873Z,7.77
2018-10-12T21:43:38.516Z,6.70
2018-10-12T21:46:07.000Z,7.57
2018-10-12T21:48:35.477Z,7.10
2018-10-12T21:51:04.768Z,8.57
2018-10-12T21:53:33.182Z,7.73
2018-10-12T21:56:02.280Z,10.20
2018-10-12T21:58:30.739Z,6.90
2018-10-12T22:01:05.325Z,5.83
2018-10-12T22:03:36.399Z,6.50
2018-10-12T22:06:05.418Z,14.73
2018-10-12T22:08:39.131Z,6.00
2018-10-12T22:11:07.987Z,5.27
2018-10-12T22:13:36.937Z,6.37
2018-10-12T22:16:05.383Z,11.17
2018-10-12T22:18:33.766Z,7.90
2018-10-12T22:21:02.713Z,6.93
2018-10-12T22:23:31.211Z,8.83
2018-10-12T22:25:59.727Z,7.93
2018-10-12T22:28:28.104Z,7.93
2018-10-12T22:30:56.521Z,8.73
2018-10-12T22:33:24.951Z,7.80
2018-10-12T22:35:53.475Z,9.27
2018-10-12T22:38:21.948Z,9.03
2018-10-12T22:40:50.512Z,9.90
2018-10-12T22:43:18.930Z,7.80
2018-10-12T22:45:47.347Z,8.27
2018-10-12T22:48:15.842Z,8.57
2018-10-12T22:50:44.324Z,7.37
2018-10-12T22:53:12.788Z,6.63
2018-10-12T22:55:41.329Z,7.07
2018-10-12T22:58:10.199Z,7.70
2018-10-12T23:00:39.124Z,8.43
2018-10-12T23:03:07.839Z,6.83
2018-10-12T23:05:36.275Z,7.70
2018-10-12T23:08:04.728Z,6.27
2018-10-12T23:10:33.481Z,6.00
2018-10-12T23:13:01.970Z,6.70
2018-10-12T23:15:30.368Z,8.67
2018-10-12T23:17:58.895Z,8.43
2018-10-12T23:20:27.353Z,6.67
2018-10-12T23:22:55.814Z,5.43
2018-10-12T23:25:24.239Z,7.57
2018-10-12T23:27:52.739Z,7.93
2018-10-12T23:30:21.157Z,8.43
2018-10-12T23:32:49.780Z,7.73
2018-10-12T23:35:18.497Z,8.37
2018-10-12T23:37:47.045Z,6.57
2018-10-12T23:40:15.561Z,7.40
2018-10-12T23:42:43.993Z,8.97
2018-10-12T23:45:12.554Z,7.53
2018-10-12T23:47:41.063Z,9.00
2018-10-12T23:50:09.564Z,5.80
2018-10-12T23:52:38.016Z,5.40
2018-10-12T23:55:06.517Z,6.57
2018-10-12T23:57:36.032Z,7.33
